createdAt,value
2023-04-24T00:01:10.443Z,99.90
2023-04-24T00:03:40.097Z,99.90
2023-04-24T00:06:09.115Z,99.90
2023-04-24T00:08:37.281Z,99.90
2023-04-24T00:11:05.591Z,99.90
2023-04-24T00:13:34.944Z,99.90
2023-04-24T00:16:02.995Z,99.90
2023-04-24T00:18:30.986Z,99.90
2023-04-24T00:20:59.772Z,99.90
2023-04-24T00:23:27.744Z,99.90
2023-04-24T00:25:55.896Z,99.90
2023-04-24T00:28:24.095Z,99.90
2023-04-24T00:30:53.542Z,99.90
2023-04-24T00:33:21.735Z,99.90
2023-04-24T00:35:49.879Z,99.90
2023-04-24T00:38:17.879Z,99.90
2023-04-24T00:40:46.006Z,99.90
2023-04-24T00:43:14.196Z,99.90
2023-04-24T00:45:42.516Z,99.90
2023-04-24T00:48:13.053Z,99.90
2023-04-24T00:50:41.253Z,99.90
2023-04-24T00:53:09.310Z,99.90
2023-04-24T00:55:38.499Z,99.90
2023-04-24T00:58:06.939Z,99.90
2023-04-24T01:00:35.196Z,99.90
2023-04-24T01:03:07.142Z,99.90
2023-04-24T01:05:36.826Z,99.90
2023-04-24T01:08:05.395Z,99.90
2023-04-24T01:10:35.038Z,99.90
2023-04-24T01:13:03.354Z,99.90
2023-04-24T01:15:31.391Z,99.90
2023-04-24T01:17:59.436Z,99.90
2023-04-24T01:20:28.208Z,99.90
2023-04-24T01:22:58.642Z,99.90
2023-04-24T01:25:29.558Z,99.90
2023-04-24T01:27:57.514Z,99.90
2023-04-24T01:30:25.949Z,99.90
2023-04-24T01:32:54.428Z,99.90
2023-04-24T01:35:22.549Z,99.90
2023-04-24T01:37:50.515Z,99.90
2023-04-24T01:40:20.061Z,99.90
2023-04-24T01:42:48.701Z,99.90
2023-04-24T01:45:16.877Z,99.90
2023-04-24T01:47:45.279Z,99.90
2023-04-24T01:50:13.465Z,99.90
2023-04-24T01:52:41.487Z,99.90
2023-04-24T01:55:10.422Z,99.90
2023-04-24T01:57:40.241Z,99.90
2023-04-24T02:00:09.476Z,99.90
2023-04-24T02:02:37.837Z,99.90
2023-04-24T02:05:08.771Z,99.90
2023-04-24T02:07:37.187Z,99.90
2023-04-24T02:10:06.260Z,99.90
2023-04-24T02:12:34.525Z,99.90
2023-04-24T02:15:04.147Z,99.90
2023-04-24T02:17:32.527Z,99.90
2023-04-24T02:20:00.718Z,99.90
2023-04-24T02:22:28.793Z,99.90
2023-04-24T02:24:57.194Z,99.90
2023-04-24T02:27:25.782Z,99.90
2023-04-24T02:29:53.795Z,99.90
2023-04-24T02:32:23.129Z,99.90
2023-04-24T02:34:51.405Z,99.90
2023-04-24T02:37:19.447Z,99.90
2023-04-24T02:39:47.554Z,99.90
2023-04-24T02:42:16.608Z,99.90
2023-04-24T02:44:44.573Z,99.90
2023-04-24T02:47:12.715Z,99.90
2023-04-24T02:49:43.202Z,99.90
2023-04-24T02:52:11.725Z,99.90
2023-04-24T02:54:39.768Z,99.90
2023-04-24T02:57:08.333Z,99.90
2023-04-24T02:59:36.511Z,99.90
2023-04-24T03:02:04.545Z,99.90
2023-04-24T03:04:33.262Z,99.90
2023-04-24T03:07:03.176Z,99.90
2023-04-24T03:09:31.189Z,99.90
2023-04-24T03:11:59.777Z,99.90
2023-04-24T03:14:27.775Z,99.90
2023-04-24T03:16:55.755Z,99.90
2023-04-24T03:19:23.755Z,99.90
2023-04-24T03:21:51.948Z,99.90
2023-04-24T03:24:21.760Z,99.90
2023-04-24T03:26:49.715Z,99.90
2023-04-24T03:29:17.707Z,99.90
2023-04-24T03:31:45.743Z,99.90
2023-04-24T03:34:14.201Z,99.90
2023-04-24T03:36:42.212Z,99.90
2023-04-24T03:39:10.199Z,99.90
2023-04-24T03:41:39.706Z,99.90
2023-04-24T03:44:07.769Z,99.90
2023-04-24T03:46:35.839Z,99.90
2023-04-24T03:49:03.974Z,99.90
2023-04-24T03:51:32.561Z,99.90
2023-04-24T03:54:00.693Z,99.90
2023-04-24T03:56:28.670Z,99.90
2023-04-24T03:58:58.078Z,99.90
2023-04-24T04:01:26.048Z,99.90
2023-04-24T04:03:54.325Z,99.90
2023-04-24T04:06:22.567Z,99.90
2023-04-24T04:08:50.664Z,99.90
2023-04-24T04:11:18.724Z,99.90
2023-04-24T04:13:48.843Z,99.90
2023-04-24T04:16:18.774Z,99.90
2023-04-24T04:18:47.214Z,99.90
2023-04-24T04:21:15.384Z,99.90
2023-04-24T04:23:43.744Z,99.90
2023-04-24T04:26:11.752Z,99.90
2023-04-24T04:28:40.470Z,99.90
2023-04-24T04:31:08.801Z,99.90
2023-04-24T04:33:39.271Z,99.90
2023-04-24T04:36:08.979Z,99.90
2023-04-24T04:38:38.172Z,99.90
2023-04-24T04:41:06.554Z,99.90
2023-04-24T04:43:35.649Z,99.90
2023-04-24T04:46:04.487Z,99.90
2023-04-24T04:48:33.560Z,99.90
2023-04-24T04:51:02.935Z,99.90
2023-04-24T04:53:30.977Z,99.90
2023-04-24T04:55:59.070Z,99.90
2023-04-24T04:58:27.001Z,99.90
2023-04-24T05:00:54.926Z,99.90
2023-04-24T05:03:23.065Z,99.90
2023-04-24T05:05:51.185Z,99.90
2023-04-24T05:08:27.166Z,99.90
2023-04-24T05:10:56.159Z,99.90
2023-04-24T05:15:55.084Z,99.90
2023-04-24T05:18:23.051Z,99.90
2023-04-24T05:20:51.009Z,99.90
2023-04-24T05:23:20.382Z,99.90
2023-04-24T05:25:48.360Z,99.90
2023-04-24T05:28:16.412Z,99.90
2023-04-24T05:30:44.616Z,99.90
2023-04-24T05:33:12.700Z,99.90
2023-04-24T05:35:46.551Z,99.90
2023-04-24T05:38:14.548Z,99.90
2023-04-24T05:40:43.851Z,99.90
2023-04-24T05:43:12.113Z,99.90
2023-04-24T05:45:40.397Z,99.90
2023-04-24T05:48:08.591Z,99.90
2023-04-24T05:50:37.273Z,99.90
2023-04-24T05:53:07.992Z,99.90
2023-04-24T05:55:36.925Z,99.90
2023-04-24T05:58:06.333Z,99.90
2023-04-24T06:00:34.776Z,99.90
2023-04-24T06:03:04.725Z,99.90
2023-04-24T06:05:33.234Z,99.90
2023-04-24T06:08:01.321Z,99.90
2023-04-24T06:10:29.361Z,99.90
2023-04-24T06:13:01.296Z,99.90
2023-04-24T06:15:32.620Z,99.90
2023-04-24T06:18:00.928Z,99.90
2023-04-24T06:20:29.269Z,99.90
2023-04-24T06:22:57.267Z,99.90
2023-04-24T06:25:27.946Z,99.90
2023-04-24T06:27:56.723Z,99.90
2023-04-24T06:30:25.195Z,99.90
2023-04-24T06:33:03.095Z,99.90
2023-04-24T06:35:38.948Z,99.90
2023-04-24T06:38:07.441Z,99.90
2023-04-24T06:40:35.763Z,99.90
2023-04-24T06:43:03.919Z,99.90
2023-04-24T06:45:32.138Z,99.90
2023-04-24T06:48:02.019Z,99.90
2023-04-24T06:50:30.039Z,99.90
2023-04-24T06:52:57.977Z,99.90
2023-04-24T06:55:26.034Z,99.90
2023-04-24T06:57:54.076Z,99.90
2023-04-24T07:00:22.294Z,99.90
2023-04-24T07:02:50.365Z,99.90
2023-04-24T07:05:20.983Z,99.90
2023-04-24T07:07:50.359Z,99.90
2023-04-24T07:10:19.164Z,99.90
2023-04-24T07:12:47.461Z,99.90
2023-04-24T07:15:15.871Z,99.90
2023-04-24T07:17:44.701Z,99.90
2023-04-24T07:20:13.376Z,99.90
2023-04-24T07:22:43.034Z,99.90
2023-04-24T07:25:11.397Z,99.90
2023-04-24T07:27:39.477Z,99.90
2023-04-24T07:30:09.215Z,99.90
2023-04-24T07:32:37.258Z,99.90
2023-04-24T07:35:05.925Z,99.90
2023-04-24T07:37:34.046Z,99.90
2023-04-24T07:40:03.923Z,99.90
2023-04-24T07:42:32.428Z,99.90
2023-04-24T07:45:01.032Z,99.90
2023-04-24T07:47:29.332Z,99.90
2023-04-24T07:49:57.335Z,99.90
2023-04-24T07:52:25.772Z,99.90
2023-04-24T07:54:59.328Z,99.90
2023-04-24T07:57:28.885Z,99.90
2023-04-24T07:59:57.247Z,99.90
2023-04-24T08:02:27.632Z,99.90
2023-04-24T08:04:56.987Z,99.90
2023-04-24T08:07:26.169Z,99.90
2023-04-24T08:09:54.207Z,99.90
2023-04-24T08:12:22.181Z,99.90
2023-04-24T08:14:51.804Z,99.90
2023-04-24T08:17:19.894Z,99.90
2023-04-24T08:19:49.608Z,99.90
2023-04-24T08:22:17.714Z,99.90
2023-04-24T08:24:45.773Z,99.90
2023-04-24T08:27:13.766Z,99.90
2023-04-24T08:29:42.105Z,99.90
2023-04-24T08:32:12.130Z,99.90
2023-04-24T08:34:40.123Z,99.90
2023-04-24T08:37:08.277Z,99.90
2023-04-24T08:39:36.302Z,99.90
2023-04-24T08:42:08.913Z,99.90
2023-04-24T08:44:38.310Z,99.90
2023-04-24T08:47:07.017Z,99.90
2023-04-24T08:49:38.848Z,99.90
2023-04-24T08:52:07.537Z,99.90
2023-04-24T08:54:36.869Z,99.90
2023-04-24T08:57:05.697Z,99.90
2023-04-24T08:59:34.225Z,99.90
2023-04-24T09:02:05.266Z,99.90
2023-04-24T09:04:36.008Z,99.90
2023-04-24T09:07:08.210Z,99.90
2023-04-24T09:09:37.968Z,99.90
2023-04-24T09:12:06.505Z,99.90
2023-04-24T09:14:37.222Z,99.90
2023-04-24T09:17:05.305Z,99.90
2023-04-24T09:19:33.361Z,99.90
2023-04-24T09:22:01.347Z,99.90
2023-04-24T09:24:30.860Z,99.90
2023-04-24T09:27:00.310Z,99.90
2023-04-24T09:29:28.328Z,99.90
2023-04-24T09:31:56.540Z,99.90
2023-04-24T09:34:26.091Z,99.90
2023-04-24T09:36:54.646Z,99.90
2023-04-24T09:39:22.656Z,99.90
2023-04-24T09:41:53.436Z,99.90
2023-04-24T09:44:22.413Z,99.90
2023-04-24T09:46:52.917Z,99.90
2023-04-24T09:49:25.709Z,99.90
2023-04-24T09:51:54.170Z,99.90
2023-04-24T09:54:23.668Z,99.90
2023-04-24T09:56:53.535Z,99.90
2023-04-24T09:59:21.928Z,99.90
2023-04-24T10:01:51.785Z,99.90
2023-04-24T10:04:20.807Z,99.90
2023-04-24T10:06:51.221Z,99.90
2023-04-24T10:09:19.981Z,99.90
2023-04-24T10:11:49.770Z,99.90
2023-04-24T10:14:21.985Z,99.90
2023-04-24T10:16:51.825Z,99.90
2023-04-24T10:19:21.151Z,99.90
2023-04-24T10:21:49.572Z,99.90
2023-04-24T10:24:19.341Z,99.90
2023-04-24T10:26:49.328Z,99.90
2023-04-24T10:29:20.678Z,99.90
2023-04-24T10:31:48.836Z,99.90
2023-04-24T10:34:19.212Z,99.90
2023-04-24T10:36:50.971Z,99.90
2023-04-24T10:39:20.537Z,99.90
2023-04-24T10:41:58.546Z,99.90
2023-04-24T10:44:37.887Z,99.90
2023-04-24T10:47:06.246Z,99.90
2023-04-24T10:49:34.701Z,99.90
2023-04-24T10:52:06.422Z,99.90
2023-04-24T10:54:37.645Z,99.90
2023-04-24T10:57:31.974Z,99.90
2023-04-24T11:02:49.990Z,99.90
2023-04-24T11:05:19.447Z,99.90
2023-04-24T11:08:12.563Z,99.90
2023-04-24T11:10:46.306Z,99.90
2023-04-24T11:13:17.828Z,99.90
2023-04-24T11:16:07.287Z,99.40
2023-04-24T11:18:40.297Z,98.60
2023-04-24T11:21:13.130Z,97.60
2023-04-24T11:23:41.997Z,97.20
2023-04-24T11:26:13.936Z,97.00
2023-04-24T11:28:48.279Z,96.90
2023-04-24T11:31:43.285Z,96.70
2023-04-24T11:34:13.286Z,96.90
2023-04-24T11:36:42.071Z,97.40
2023-04-24T11:39:11.014Z,97.90
2023-04-24T11:41:39.868Z,98.40
2023-04-24T11:44:09.254Z,98.70
2023-04-24T11:46:39.113Z,97.90
2023-04-24T11:49:09.193Z,96.90
2023-04-24T11:51:48.758Z,96.70
2023-04-24T11:54:20.950Z,96.40
2023-04-24T11:56:49.369Z,95.80
2023-04-24T11:59:17.496Z,95.50
2023-04-24T12:01:46.774Z,95.20
2023-04-24T12:04:17.026Z,95.20
2023-04-24T12:07:03.628Z,94.70
2023-04-24T12:09:42.139Z,94.80
2023-04-24T12:12:12.549Z,94.90
2023-04-24T12:14:49.835Z,94.90
2023-04-24T12:17:18.044Z,95.20
2023-04-24T12:19:51.678Z,95.30
2023-04-24T12:22:19.677Z,95.70
2023-04-24T12:25:05.029Z,95.90
2023-04-24T12:27:34.699Z,95.50
2023-04-24T12:30:07.685Z,95.40
2023-04-24T12:32:35.702Z,95.70
2023-04-24T12:35:08.016Z,96.20
2023-04-24T12:37:37.518Z,96.70
2023-04-24T12:40:08.835Z,96.70
2023-04-24T12:42:43.822Z,96.60
2023-04-24T12:45:13.221Z,96.80
2023-04-24T12:47:42.414Z,96.90
2023-04-24T12:50:14.257Z,97.20
2023-04-24T12:52:43.156Z,97.50
2023-04-24T12:55:13.246Z,97.70
2023-04-24T12:57:41.996Z,97.80
2023-04-24T13:00:11.481Z,97.80
2023-04-24T13:02:39.869Z,97.60
2023-04-24T13:05:08.537Z,97.30
2023-04-24T13:07:37.923Z,97.30
2023-04-24T13:10:06.771Z,96.40
2023-04-24T13:12:35.003Z,96.20
2023-04-24T13:15:02.995Z,96.00
2023-04-24T13:17:31.069Z,95.50
2023-04-24T13:19:59.130Z,95.50
2023-04-24T13:22:27.361Z,95.70
2023-04-24T13:24:57.387Z,95.70
2023-04-24T13:27:25.433Z,95.50
2023-04-24T13:29:53.365Z,95.40
2023-04-24T13:32:21.522Z,95.50
2023-04-24T13:34:49.696Z,95.30
2023-04-24T13:37:17.668Z,95.10
2023-04-24T13:39:45.904Z,95.10
2023-04-24T13:42:15.353Z,95.10
2023-04-24T13:44:43.918Z,95.00
2023-04-24T13:47:12.018Z,94.80
2023-04-24T13:49:40.072Z,94.20
2023-04-24T13:52:08.401Z,93.50
2023-04-24T13:54:36.425Z,93.00
2023-04-24T13:57:05.503Z,92.60
2023-04-24T13:59:34.844Z,92.70
2023-04-24T14:02:02.916Z,93.00
2023-04-24T14:04:31.456Z,93.50
2023-04-24T14:06:59.579Z,94.20
2023-04-24T14:09:27.571Z,94.70
2023-04-24T14:11:55.983Z,95.50
2023-04-24T14:14:23.954Z,95.40
2023-04-24T14:16:53.380Z,95.90
2023-04-24T14:19:21.586Z,99.90
2023-04-24T14:21:49.603Z,99.90
2023-04-24T14:24:17.712Z,99.90
2023-04-24T14:29:15.228Z,96.50
2023-04-24T14:31:43.901Z,96.80
2023-04-24T14:34:13.730Z,97.00
2023-04-24T14:36:41.928Z,96.90
2023-04-24T14:39:10.141Z,96.80
2023-04-24T14:41:40.539Z,96.80
2023-04-24T14:44:08.820Z,96.80
2023-04-24T14:46:36.909Z,96.70
2023-04-24T14:49:05.041Z,96.60
2023-04-24T14:51:34.385Z,96.40
2023-04-24T14:54:02.340Z,96.30
2023-04-24T14:56:30.359Z,96.20
2023-04-24T14:58:58.419Z,96.10
2023-04-24T15:01:26.706Z,95.60
2023-04-24T15:03:55.226Z,95.30
2023-04-24T15:06:23.387Z,95.20
2023-04-24T15:08:52.738Z,95.00
2023-04-24T15:11:21.287Z,95.20
2023-04-24T15:13:49.648Z,94.80
2023-04-24T15:16:18.201Z,94.40
2023-04-24T15:18:46.710Z,93.70
2023-04-24T15:21:14.952Z,93.30
2023-04-24T15:23:43.109Z,93.00
2023-04-24T15:26:12.576Z,92.20
2023-04-24T15:28:40.555Z,91.90
2023-04-24T15:31:08.583Z,91.50
2023-04-24T15:33:36.610Z,91.10
2023-04-24T15:36:04.786Z,91.00
2023-04-24T15:38:33.409Z,90.90
2023-04-24T15:41:01.519Z,91.10
2023-04-24T15:43:32.150Z,90.90
2023-04-24T15:46:00.236Z,90.80
2023-04-24T15:48:29.763Z,90.80
2023-04-24T15:50:57.895Z,91.00
2023-04-24T15:53:26.302Z,91.10
2023-04-24T15:55:56.956Z,91.30
2023-04-24T15:58:25.021Z,91.40
2023-04-24T16:00:54.918Z,91.60
2023-04-24T16:03:23.182Z,91.80
2023-04-24T16:05:51.311Z,92.00
2023-04-24T16:08:19.342Z,92.20
2023-04-24T16:10:47.384Z,92.80
2023-04-24T16:13:15.499Z,92.70
2023-04-24T16:15:43.587Z,93.10
2023-04-24T16:18:13.028Z,93.30
2023-04-24T16:20:41.218Z,93.60
2023-04-24T16:23:09.486Z,93.70
2023-04-24T16:25:37.693Z,93.80
2023-04-24T16:28:06.823Z,93.90
2023-04-24T16:30:34.824Z,94.10
2023-04-24T16:33:07.506Z,94.30
2023-04-24T16:35:37.037Z,94.50
2023-04-24T16:38:05.219Z,94.60
2023-04-24T16:40:33.532Z,94.70
2023-04-24T16:43:01.536Z,94.80
2023-04-24T16:45:29.643Z,94.90
2023-04-24T16:47:57.894Z,95.20
2023-04-24T16:50:25.858Z,95.50
2023-04-24T16:52:55.208Z,95.70
2023-04-24T16:55:25.177Z,96.00
2023-04-24T16:57:53.248Z,96.20
2023-04-24T17:00:21.628Z,96.30
2023-04-24T17:02:50.584Z,96.50
2023-04-24T17:05:21.140Z,96.70
2023-04-24T17:07:49.203Z,96.80
2023-04-24T17:10:18.486Z,97.90
2023-04-24T17:12:46.563Z,99.90
2023-04-24T17:15:14.517Z,99.90
2023-04-24T17:17:44.488Z,99.90
2023-04-24T17:20:22.189Z,99.90
2023-04-24T17:22:52.141Z,99.90
2023-04-24T17:25:22.048Z,99.90
2023-04-24T17:27:50.240Z,99.90
2023-04-24T17:30:18.712Z,99.90
2023-04-24T17:32:47.071Z,99.90
2023-04-24T17:35:15.407Z,99.90
2023-04-24T17:37:43.477Z,99.90
2023-04-24T17:40:13.068Z,99.90
2023-04-24T17:42:42.501Z,99.90
2023-04-24T17:45:11.938Z,99.90
2023-04-24T17:47:40.205Z,99.90
2023-04-24T17:50:08.921Z,99.90
2023-04-24T17:52:36.878Z,99.90
2023-04-24T17:55:05.518Z,99.90
2023-04-24T17:57:33.567Z,99.90
2023-04-24T18:00:04.347Z,99.90
2023-04-24T18:02:32.609Z,99.90
2023-04-24T18:05:00.813Z,99.90
2023-04-24T18:07:28.796Z,99.90
2023-04-24T18:09:56.890Z,99.90
2023-04-24T18:12:25.068Z,99.90
2023-04-24T18:14:57.282Z,99.90
2023-04-24T18:17:35.847Z,99.90
2023-04-24T18:20:04.185Z,99.90
2023-04-24T18:22:32.246Z,99.90
2023-04-24T18:25:00.312Z,99.90
2023-04-24T18:27:31.034Z,99.90
2023-04-24T18:29:59.449Z,99.90
2023-04-24T18:32:28.073Z,99.90
2023-04-24T18:34:57.667Z,99.90
2023-04-24T18:37:25.654Z,99.90
2023-04-24T18:39:55.348Z,99.90
2023-04-24T18:42:23.838Z,99.90
2023-04-24T18:44:52.063Z,99.90
2023-04-24T18:47:20.292Z,99.90
2023-04-24T18:49:48.492Z,99.90
2023-04-24T18:52:17.824Z,99.90
2023-04-24T18:54:45.968Z,99.90
2023-04-24T18:57:13.920Z,99.90
2023-04-24T18:59:42.392Z,99.90
2023-04-24T19:02:10.566Z,99.90
2023-04-24T19:04:39.024Z,99.90
2023-04-24T19:07:07.278Z,99.90
2023-04-24T19:09:36.978Z,99.90
2023-04-24T19:12:06.600Z,99.90
2023-04-24T19:14:34.574Z,99.90
2023-04-24T19:17:02.578Z,99.90
2023-04-24T19:19:32.050Z,99.90
2023-04-24T19:22:00.153Z,99.90
2023-04-24T19:24:29.272Z,99.90
2023-04-24T19:26:58.645Z,99.90
2023-04-24T19:29:26.697Z,99.90
2023-04-24T19:31:55.627Z,99.90
2023-04-24T19:34:23.810Z,99.90
2023-04-24T19:36:52.060Z,99.90
2023-04-24T19:39:20.335Z,99.90
2023-04-24T19:41:48.421Z,99.90
2023-04-24T19:44:18.820Z,99.90
2023-04-24T19:46:47.649Z,99.90
2023-04-24T19:49:17.078Z,99.90
2023-04-24T19:51:45.048Z,99.90
2023-04-24T19:54:13.593Z,99.90
2023-04-24T19:56:41.688Z,99.90
2023-04-24T19:59:09.940Z,99.90
2023-04-24T20:01:40.179Z,99.90
2023-04-24T20:04:10.092Z,99.90
2023-04-24T20:06:38.361Z,99.90
2023-04-24T20:09:06.769Z,99.90
2023-04-24T20:11:35.220Z,99.90
2023-04-24T20:14:03.783Z,99.90
2023-04-24T20:16:32.274Z,99.90
2023-04-24T20:19:01.720Z,99.90
2023-04-24T20:21:30.150Z,99.90
2023-04-24T20:23:58.134Z,99.90
2023-04-24T20:26:26.121Z,99.90
2023-04-24T20:28:54.358Z,99.90
2023-04-24T20:31:22.826Z,99.90
2023-04-24T20:33:50.830Z,99.90
2023-04-24T20:36:20.158Z,99.90
2023-04-24T20:38:48.617Z,99.90
2023-04-24T20:41:17.230Z,99.90
2023-04-24T20:43:45.320Z,99.90
2023-04-24T20:46:13.466Z,99.90
2023-04-24T20:48:41.563Z,99.90
2023-04-24T20:51:09.561Z,99.90
2023-04-24T20:53:39.027Z,99.90
2023-04-24T20:56:08.866Z,99.90
2023-04-24T20:58:36.830Z,99.90
2023-04-24T21:01:04.942Z,99.90
2023-04-24T21:03:33.120Z,99.90
2023-04-24T21:06:01.276Z,99.90
2023-04-24T21:08:29.732Z,99.90
2023-04-24T21:10:59.171Z,99.90
2023-04-24T21:13:27.178Z,99.90
2023-04-24T21:15:55.435Z,99.90
2023-04-24T21:18:23.746Z,99.90
2023-04-24T21:20:53.519Z,99.90
2023-04-24T21:23:21.754Z,99.90
2023-04-24T21:25:49.839Z,99.90
2023-04-24T21:28:19.595Z,99.90
2023-04-24T21:30:47.601Z,99.90
2023-04-24T21:33:15.705Z,99.90
2023-04-24T21:35:43.916Z,99.90
2023-04-24T21:38:11.868Z,99.90
2023-04-24T21:40:39.936Z,99.90
2023-04-24T21:43:10.188Z,99.90
2023-04-24T21:45:39.542Z,99.90
2023-04-24T21:48:07.610Z,99.90
2023-04-24T21:50:35.762Z,99.90
2023-04-24T21:53:04.548Z,99.90
2023-04-24T21:55:32.611Z,99.90
2023-04-24T21:58:00.788Z,99.90
2023-04-24T22:00:28.958Z,99.90
2023-04-24T22:02:58.552Z,99.90
2023-04-24T22:05:27.294Z,99.90
2023-04-24T22:07:56.308Z,99.90
2023-04-24T22:10:24.549Z,99.90
2023-04-24T22:12:52.952Z,99.90
2023-04-24T22:15:21.091Z,99.90
2023-04-24T22:17:49.818Z,99.90
2023-04-24T22:20:19.521Z,99.90
2023-04-24T22:22:47.664Z,99.90
2023-04-24T22:25:15.728Z,99.90
2023-04-24T22:27:43.742Z,99.90
2023-04-24T22:30:12.382Z,99.90
2023-04-24T22:32:41.114Z,99.90
2023-04-24T22:35:10.291Z,99.90
2023-04-24T22:37:39.659Z,99.90
2023-04-24T22:40:10.157Z,99.90
2023-04-24T22:42:38.659Z,99.90
2023-04-24T22:45:08.762Z,99.90
2023-04-24T22:47:36.794Z,99.90
2023-04-24T22:50:06.034Z,99.90
2023-04-24T22:52:35.850Z,99.90
2023-04-24T22:55:06.725Z,99.90
2023-04-24T22:57:34.896Z,99.90
2023-04-24T23:00:06.674Z,99.90
2023-04-24T23:02:34.741Z,99.90
2023-04-24T23:05:03.160Z,99.90
2023-04-24T23:07:31.205Z,99.90
2023-04-24T23:09:59.683Z,99.90
2023-04-24T23:12:29.530Z,99.90
2023-04-24T23:14:57.700Z,99.90
2023-04-24T23:17:25.765Z,99.90
2023-04-24T23:19:54.180Z,99.90
2023-04-24T23:22:22.335Z,99.90
2023-04-24T23:24:50.640Z,99.90
2023-04-24T23:27:18.629Z,99.90
2023-04-24T23:29:47.969Z,99.90
2023-04-24T23:32:16.320Z,99.90
2023-04-24T23:34:44.476Z,99.90
2023-04-24T23:37:13.551Z,99.90
2023-04-24T23:39:41.584Z,99.90
2023-04-24T23:42:09.557Z,99.90
2023-04-24T23:44:37.710Z,99.90
2023-04-24T23:47:07.140Z,99.90
2023-04-24T23:49:36.721Z,99.90
2023-04-24T23:52:05.671Z,99.90
2023-04-24T23:54:33.737Z,99.90
2023-04-24T23:57:02.462Z,99.90
2023-04-24T23:59:30.706Z,99.90
